Search for airport 
image banner adimage banner adimage banner ad
image banner ad

KBNW - Boone Muni

Located in Boone, United States

ICAO - BNW, IATA - BNW

Data provided by Airmate  

General information

Coordinates: N42°2'58" W93°50'51"
Elevation is 1160 feet MSL.
Magnetic variation is 03° East
View others Airports in Iowa

Operational data

Special qualification required
Current time UTC:
Current local time:
Weather
METAR: KBNW 181855Z AUTO 00000KT 10SM CLR 29/15 A2989 RMK AO2
View NOTAMs / SUP AIP / TFR affecting this airport [VIEW]
Communications frequencies: [VIEW]

Runways:

RWY identifierQFULength (ft)Width (ft)SurfaceLDA (ft)
0225°3248146GRASS
20205°3248146GRASS
15149°480875CONC4667
33329°480875CONC4807

Airport contact information

Address: Boone United States

Other aviation service providers

Flight schools

Farnham Aviation Services

Farnham Aviation Services

Satellite view of KBNW